sensor_id;sensor_type;location;lat;lon;timestamp;pressure;altitude;pressure_sealevel;temperature;humidity
30338;BME280;17143;51.888;5.408;2023-09-07T00:06:45;101777.41;;;24.12;74.70
30338;BME280;17143;51.888;5.408;2023-09-07T00:21:47;101774.19;;;23.75;75.63
30338;BME280;17143;51.888;5.408;2023-09-07T00:36:49;101758.63;;;23.46;77.33
30338;BME280;17143;51.888;5.408;2023-09-07T00:51:52;101759.22;;;23.30;77.96
30338;BME280;17143;51.888;5.408;2023-09-07T01:06:56;101763.38;;;23.13;79.69
30338;BME280;17143;51.888;5.408;2023-09-07T01:21:59;101762.84;;;22.86;80.78
30338;BME280;17143;51.888;5.408;2023-09-07T01:37:02;101750.72;;;22.57;81.56
30338;BME280;17143;51.888;5.408;2023-09-07T01:52:04;101734.16;;;22.25;83.49
30338;BME280;17143;51.888;5.408;2023-09-07T02:07:07;101732.59;;;21.94;88.06
30338;BME280;17143;51.888;5.408;2023-09-07T02:22:09;101742.78;;;21.76;91.12
30338;BME280;17143;51.888;5.408;2023-09-07T02:37:11;101738.81;;;21.59;92.24
30338;BME280;17143;51.888;5.408;2023-09-07T02:52:13;101742.13;;;21.49;92.89
30338;BME280;17143;51.888;5.408;2023-09-07T03:07:15;101739.13;;;21.35;93.23
30338;BME280;17143;51.888;5.408;2023-09-07T03:22:18;101731.56;;;21.16;94.47
30338;BME280;17143;51.888;5.408;2023-09-07T03:37:20;101739.31;;;21.08;94.69
30338;BME280;17143;51.888;5.408;2023-09-07T03:52:22;101742.38;;;20.92;95.62
30338;BME280;17143;51.888;5.408;2023-09-07T04:07:24;101742.88;;;20.78;96.42
30338;BME280;17143;51.888;5.408;2023-09-07T04:22:26;101744.31;;;20.65;97.33
30338;BME280;17143;51.888;5.408;2023-09-07T04:37:28;101743.97;;;20.53;97.30
30338;BME280;17143;51.888;5.408;2023-09-07T04:52:31;101741.84;;;20.41;97.44
30338;BME280;17143;51.888;5.408;2023-09-07T05:07:33;101760.06;;;20.31;98.82
30338;BME280;17143;51.888;5.408;2023-09-07T05:22:35;101763.69;;;20.33;97.08
30338;BME280;17143;51.888;5.408;2023-09-07T05:37:37;101774.09;;;20.28;97.10
30338;BME280;17143;51.888;5.408;2023-09-07T05:52:39;101780.28;;;20.27;99.10
30338;BME280;17143;51.888;5.408;2023-09-07T06:07:41;101793.53;;;20.29;100.00
30338;BME280;17143;51.888;5.408;2023-09-07T06:22:44;101810.03;;;24.59;81.32
30338;BME280;17143;51.888;5.408;2023-09-07T06:37:46;101817.28;;;26.86;68.19
30338;BME280;17143;51.888;5.408;2023-09-07T06:52:51;101824.53;;;28.17;61.69
30338;BME280;17143;51.888;5.408;2023-09-07T07:07:53;101838.47;;;29.10;58.05
30338;BME280;17143;51.888;5.408;2023-09-07T07:22:55;101837.03;;;29.91;52.75
30338;BME280;17143;51.888;5.408;2023-09-07T07:37:57;101827.50;;;30.45;50.68
30338;BME280;17143;51.888;5.408;2023-09-07T07:53:00;101817.91;;;31.54;45.97
30338;BME280;17143;51.888;5.408;2023-09-07T08:08:02;101824.94;;;31.64;46.93
30338;BME280;17143;51.888;5.408;2023-09-07T08:23:05;101806.88;;;31.69;46.30
30338;BME280;17143;51.888;5.408;2023-09-07T08:38:07;101797.13;;;31.64;45.91
30338;BME280;17143;51.888;5.408;2023-09-07T08:53:09;101798.97;;;32.57;42.67
30338;BME280;17143;51.888;5.408;2023-09-07T09:08:11;101790.41;;;32.78;41.86
30338;BME280;17143;51.888;5.408;2023-09-07T09:23:13;101780.50;;;32.34;42.71
30338;BME280;17143;51.888;5.408;2023-09-07T09:38:16;101779.34;;;32.88;42.36
30338;BME280;17143;51.888;5.408;2023-09-07T09:53:19;101769.38;;;33.29;41.51
30338;BME280;17143;51.888;5.408;2023-09-07T10:08:21;101763.41;;;33.16;41.61
30338;BME280;17143;51.888;5.408;2023-09-07T10:23:35;101746.94;;;33.62;40.07
30338;BME280;17143;51.888;5.408;2023-09-07T10:38:37;101752.28;;;33.65;40.25
30338;BME280;17143;51.888;5.408;2023-09-07T10:53:39;101743.81;;;33.42;40.20
30338;BME280;17143;51.888;5.408;2023-09-07T11:08:41;101733.97;;;33.04;40.14
30338;BME280;17143;51.888;5.408;2023-09-07T11:23:44;101723.06;;;33.08;40.04
30338;BME280;17143;51.888;5.408;2023-09-07T11:38:47;101723.94;;;32.71;38.84
30338;BME280;17143;51.888;5.408;2023-09-07T11:53:49;101698.75;;;32.70;39.39
30338;BME280;17143;51.888;5.408;2023-09-07T12:08:59;101696.16;;;32.67;39.39
30338;BME280;17143;51.888;5.408;2023-09-07T12:24:01;101690.91;;;32.96;39.01
30338;BME280;17143;51.888;5.408;2023-09-07T12:39:04;101669.16;;;33.02;38.78
30338;BME280;17143;51.888;5.408;2023-09-07T12:54:06;101666.66;;;33.30;38.47
30338;BME280;17143;51.888;5.408;2023-09-07T13:09:08;101656.66;;;33.34;39.33
30338;BME280;17143;51.888;5.408;2023-09-07T13:24:10;101648.34;;;33.07;38.51
30338;BME280;17143;51.888;5.408;2023-09-07T13:39:12;101629.22;;;33.49;37.76
30338;BME280;17143;51.888;5.408;2023-09-07T13:54:14;101629.47;;;33.40;36.79
30338;BME280;17143;51.888;5.408;2023-09-07T14:09:16;101616.97;;;33.68;35.75
30338;BME280;17143;51.888;5.408;2023-09-07T14:24:17;101604.69;;;33.55;36.50
30338;BME280;17143;51.888;5.408;2023-09-07T14:39:19;101590.88;;;33.35;38.17
30338;BME280;17143;51.888;5.408;2023-09-07T14:54:21;101588.22;;;33.33;37.42
30338;BME280;17143;51.888;5.408;2023-09-07T15:09:23;101573.47;;;33.13;38.12
30338;BME280;17143;51.888;5.408;2023-09-07T15:24:27;101566.59;;;32.99;38.59
30338;BME280;17143;51.888;5.408;2023-09-07T15:39:29;101560.78;;;32.81;40.08
30338;BME280;17143;51.888;5.408;2023-09-07T15:54:31;101545.97;;;32.63;45.20
30338;BME280;17143;51.888;5.408;2023-09-07T16:09:33;101537.81;;;32.28;46.71
30338;BME280;17143;51.888;5.408;2023-09-07T16:24:35;101543.91;;;31.98;47.09
30338;BME280;17143;51.888;5.408;2023-09-07T16:39:37;101526.66;;;31.66;47.27
30338;BME280;17143;51.888;5.408;2023-09-07T16:54:39;101519.94;;;31.41;48.41
30338;BME280;17143;51.888;5.408;2023-09-07T17:09:41;101528.63;;;31.12;48.70
30338;BME280;17143;51.888;5.408;2023-09-07T17:24:43;101535.47;;;30.80;50.20
30338;BME280;17143;51.888;5.408;2023-09-07T17:39:45;101528.84;;;30.48;51.59
30338;BME280;17143;51.888;5.408;2023-09-07T17:54:49;101529.41;;;30.12;53.17
30338;BME280;17143;51.888;5.408;2023-09-07T18:09:51;101522.75;;;29.75;54.22
30338;BME280;17143;51.888;5.408;2023-09-07T18:24:53;101536.72;;;29.32;56.51
30338;BME280;17143;51.888;5.408;2023-09-07T18:39:55;101537.94;;;29.01;57.56
30338;BME280;17143;51.888;5.408;2023-09-07T18:54:56;101559.66;;;28.74;58.42
30338;BME280;17143;51.888;5.408;2023-09-07T19:09:58;101551.81;;;28.48;59.34
30338;BME280;17143;51.888;5.408;2023-09-07T19:25:01;101554.75;;;28.13;60.67
30338;BME280;17143;51.888;5.408;2023-09-07T19:40:03;101556.66;;;27.90;61.49
30338;BME280;17143;51.888;5.408;2023-09-07T19:55:07;101561.22;;;27.62;62.80
30338;BME280;17143;51.888;5.408;2023-09-07T20:10:09;101562.22;;;27.17;65.00
30338;BME280;17143;51.888;5.408;2023-09-07T20:25:12;101562.28;;;26.81;66.97
30338;BME280;17143;51.888;5.408;2023-09-07T20:40:14;101551.56;;;26.51;68.01
30338;BME280;17143;51.888;5.408;2023-09-07T20:55:16;101554.19;;;26.19;69.93
30338;BME280;17143;51.888;5.408;2023-09-07T21:10:18;101558.56;;;25.97;70.15
30338;BME280;17143;51.888;5.408;2023-09-07T21:25:20;101547.81;;;25.67;71.79
30338;BME280;17143;51.888;5.408;2023-09-07T21:40:23;101545.84;;;25.36;73.15
30338;BME280;17143;51.888;5.408;2023-09-07T21:55:25;101535.03;;;25.09;74.10
30338;BME280;17143;51.888;5.408;2023-09-07T22:10:27;101526.09;;;24.99;74.13
30338;BME280;17143;51.888;5.408;2023-09-07T22:25:29;101540.03;;;24.66;75.56
30338;BME280;17143;51.888;5.408;2023-09-07T22:40:33;101520.28;;;24.40;77.09
30338;BME280;17143;51.888;5.408;2023-09-07T22:55:40;101524.50;;;24.20;76.61
30338;BME280;17143;51.888;5.408;2023-09-07T23:10:42;101514.66;;;24.10;75.71
30338;BME280;17143;51.888;5.408;2023-09-07T23:25:44;101521.53;;;23.90;75.56
30338;BME280;17143;51.888;5.408;2023-09-07T23:40:46;101533.69;;;23.70;75.81
30338;BME280;17143;51.888;5.408;2023-09-07T23:55:48;101526.44;;;23.53;76.12
